Time;durP1;ratioP1;P1;durP2;ratioP2;P2;SDS_P1;SDS_P2;PMS_P1;PMS_P2;Temp;Humidity;BMP_temperature;BMP_pressure;BME280_temperature;BME280_humidity;BME280_pressure;Samples;Min_cycle;Max_cycle;Signal;HPM_P1;HPM_P2
2023/08/05 00:00:04;;;;;;;8.60;4.83;;;;;;;;;;5005927;28;20194;-76
2023/08/05 00:02:31;;;;;;;5.33;4.80;;;;;;;;;;5005575;28;20764;-77
2023/08/05 00:04:58;;;;;;;7.53;4.87;;;;;;;;;;5009418;28;20206;-76
2023/08/05 00:07:24;;;;;;;6.80;5.20;;;;;;;;;;5009608;28;20187;-76
2023/08/05 00:09:50;;;;;;;7.53;5.43;;;;;;;;;;4991837;28;20175;-76
2023/08/05 00:12:17;;;;;;;6.10;4.90;;;;;;;;;;5009924;28;20187;-76
2023/08/05 00:14:43;;;;;;;6.23;5.10;;;;;;;;;;4991903;28;20210;-76
2023/08/05 00:17:09;;;;;;;7.53;5.00;;;;;;;;;;5030979;22;20234;-79
2023/08/05 00:19:36;;;;;;;5.57;4.93;;;;;;;;;;5040844;28;20437;-79
2023/08/05 00:22:02;;;;;;;5.90;4.63;;;;;;;;;;5024549;28;20216;-79
2023/08/05 00:24:28;;;;;;;6.57;5.00;;;;;;;;;;5045389;28;20178;-79
2023/08/05 00:26:54;;;;;;;6.03;5.10;;;;;;;;;;5026287;28;20251;-79
2023/08/05 00:29:20;;;;;;;7.63;5.17;;;;;;;;;;5024662;28;20568;-79
2023/08/05 00:31:47;;;;;;;6.37;4.77;;;;;;;;;;5047344;28;20185;-79
2023/08/05 00:34:13;;;;;;;7.30;5.30;;;;;;;;;;5028145;28;20547;-79
2023/08/05 00:36:40;;;;;;;7.00;5.00;;;;;;;;;;5035931;28;20237;-79
2023/08/05 00:39:06;;;;;;;6.77;5.50;;;;;;;;;;5048783;28;20751;-79
2023/08/05 00:41:32;;;;;;;6.37;4.57;;;;;;;;;;5001437;28;20209;-79
2023/08/05 00:43:58;;;;;;;6.10;4.70;;;;;;;;;;5031430;28;20181;-79
2023/08/05 00:46:26;;;;;;;8.37;5.17;;;;;;;;;;5047891;28;20242;-79
2023/08/05 00:48:53;;;;;;;8.40;4.90;;;;;;;;;;5032630;28;20190;-79
2023/08/05 00:51:20;;;;;;;5.60;5.10;;;;;;;;;;5033382;28;20186;-80
2023/08/05 00:53:48;;;;;;;5.97;4.67;;;;;;;;;;5029720;28;20193;-79
2023/08/05 00:56:15;;;;;;;7.13;5.10;;;;;;;;;;5014604;28;20202;-80
2023/08/05 00:58:41;;;;;;;7.97;5.07;;;;;;;;;;5048913;28;20824;-79
2023/08/05 01:01:07;;;;;;;7.53;5.23;;;;;;;;;;5050588;28;20193;-79
2023/08/05 01:03:34;;;;;;;8.13;5.20;;;;;;;;;;5050788;28;21536;-79
2023/08/05 01:06:00;;;;;;;7.07;4.90;;;;;;;;;;5034531;28;20261;-79
2023/08/05 01:08:27;;;;;;;5.70;5.10;;;;;;;;;;5017164;28;20197;-79
2023/08/05 01:10:53;;;;;;;5.83;5.27;;;;;;;;;;5033619;28;20221;-79
2023/08/05 01:13:21;;;;;;;8.13;5.63;;;;;;;;;;5046426;28;20255;-79
2023/08/05 01:15:48;;;;;;;6.37;5.67;;;;;;;;;;5032267;28;20579;-80
2023/08/05 01:18:16;;;;;;;6.40;5.77;;;;;;;;;;5052950;28;20249;-79
2023/08/05 01:20:51;;;;;;;7.50;6.20;;;;;;;;;;5036474;28;20239;-79
2023/08/05 01:23:36;;;;;;;7.33;6.07;;;;;;;;;;5041487;28;20551;-79
2023/08/05 01:26:04;;;;;;;7.23;5.83;;;;;;;;;;5019059;28;20201;-79
2023/08/05 01:28:30;;;;;;;6.40;5.73;;;;;;;;;;5032685;28;20189;-79
2023/08/05 01:30:57;;;;;;;8.37;5.30;;;;;;;;;;5030347;28;20241;-79
2023/08/05 01:33:23;;;;;;;8.83;5.40;;;;;;;;;;5031862;28;20563;-79
2023/08/05 01:35:49;;;;;;;6.80;5.67;;;;;;;;;;5022863;28;20629;-79
2023/08/05 01:38:16;;;;;;;8.27;5.50;;;;;;;;;;5047586;28;20210;-79
2023/08/05 01:40:42;;;;;;;11.13;5.60;;;;;;;;;;5031304;28;20239;-79
2023/08/05 01:43:09;;;;;;;6.27;5.13;;;;;;;;;;5029271;28;20178;-79
2023/08/05 01:45:35;;;;;;;9.07;5.57;;;;;;;;;;5016026;28;20247;-79
2023/08/05 01:48:01;;;;;;;8.47;5.60;;;;;;;;;;5016502;28;20186;-79
2023/08/05 01:50:27;;;;;;;5.93;5.40;;;;;;;;;;5040282;28;20189;-79
2023/08/05 01:52:53;;;;;;;7.90;5.70;;;;;;;;;;5030677;28;20277;-79
2023/08/05 01:55:20;;;;;;;9.50;5.77;;;;;;;;;;5048737;28;20186;-79
2023/08/05 01:57:46;;;;;;;7.83;5.50;;;;;;;;;;5014631;28;20209;-79
2023/08/05 02:00:13;;;;;;;6.93;5.40;;;;;;;;;;4998853;28;20674;-79
2023/08/05 02:02:41;;;;;;;10.27;5.57;;;;;;;;;;5017916;28;20191;-79
2023/08/05 02:05:08;;;;;;;7.13;5.30;;;;;;;;;;5019279;28;20208;-79
2023/08/05 02:07:34;;;;;;;6.50;5.33;;;;;;;;;;5030208;28;20505;-79
2023/08/05 02:10:00;;;;;;;8.03;6.00;;;;;;;;;;5029618;28;20193;-79
2023/08/05 02:12:26;;;;;;;8.57;5.50;;;;;;;;;;5049607;28;20188;-79
2023/08/05 02:14:52;;;;;;;9.30;5.87;;;;;;;;;;5029066;28;20181;-79
2023/08/05 02:17:20;;;;;;;8.57;5.60;;;;;;;;;;5029717;28;20209;-79
2023/08/05 02:19:46;;;;;;;6.53;5.43;;;;;;;;;;5031804;28;20727;-79
2023/08/05 02:22:13;;;;;;;6.83;5.30;;;;;;;;;;5031532;28;20186;-79
2023/08/05 02:24:39;;;;;;;10.23;6.17;;;;;;;;;;5035781;28;20190;-79
2023/08/05 02:27:05;;;;;;;7.57;5.70;;;;;;;;;;5029088;28;20209;-79
2023/08/05 02:29:31;;;;;;;8.23;5.23;;;;;;;;;;5029411;28;20186;-79
2023/08/05 02:31:58;;;;;;;8.60;5.97;;;;;;;;;;5033164;28;20299;-79
2023/08/05 02:34:24;;;;;;;6.37;5.70;;;;;;;;;;5030999;28;20850;-79
2023/08/05 02:36:50;;;;;;;7.73;4.93;;;;;;;;;;5046368;28;20257;-79
2023/08/05 02:39:16;;;;;;;7.97;5.30;;;;;;;;;;5027774;28;20202;-79
2023/08/05 02:41:43;;;;;;;9.20;5.90;;;;;;;;;;5047737;28;20272;-79
2023/08/05 02:44:09;;;;;;;8.07;5.50;;;;;;;;;;5032129;28;20603;-79
2023/08/05 02:46:35;;;;;;;6.70;5.70;;;;;;;;;;5010940;28;20241;-79
2023/08/05 02:49:01;;;;;;;9.60;5.50;;;;;;;;;;5014583;28;20656;-79
2023/08/05 02:51:29;;;;;;;5.63;5.13;;;;;;;;;;5015444;28;20202;-79
2023/08/05 02:53:55;;;;;;;7.90;5.37;;;;;;;;;;5025409;28;20199;-79
2023/08/05 02:56:21;;;;;;;8.07;5.00;;;;;;;;;;5010652;28;20206;-79
2023/08/05 02:58:47;;;;;;;7.70;5.17;;;;;;;;;;5032640;28;20210;-78
2023/08/05 03:01:13;;;;;;;7.83;4.97;;;;;;;;;;5028687;28;20546;-79
2023/08/05 03:03:40;;;;;;;6.10;4.57;;;;;;;;;;5031568;28;20261;-79
2023/08/05 03:06:06;;;;;;;5.03;4.63;;;;;;;;;;5033518;28;20293;-79
2023/08/05 03:08:32;;;;;;;6.80;5.03;;;;;;;;;;5033153;28;20174;-79
2023/08/05 03:10:59;;;;;;;7.37;5.30;;;;;;;;;;5029382;28;20202;-79
2023/08/05 03:13:26;;;;;;;6.50;5.63;;;;;;;;;;5028256;28;20182;-79
2023/08/05 03:15:53;;;;;;;7.43;5.60;;;;;;;;;;5029259;28;20228;-79
2023/08/05 03:18:25;;;;;;;5.77;5.17;;;;;;;;;;5030500;28;20278;-79
2023/08/05 03:20:51;;;;;;;7.60;5.10;;;;;;;;;;5028269;28;20183;-79
2023/08/05 03:23:18;;;;;;;6.87;5.07;;;;;;;;;;5034488;28;20246;-79
2023/08/05 03:25:49;;;;;;;5.10;4.60;;;;;;;;;;5012483;28;20202;-79
2023/08/05 03:28:15;;;;;;;8.23;5.43;;;;;;;;;;5026065;28;20251;-79
2023/08/05 03:30:47;;;;;;;7.43;5.30;;;;;;;;;;5011449;28;20185;-79
2023/08/05 03:33:19;;;;;;;6.40;5.10;;;;;;;;;;5015307;28;20182;-79
2023/08/05 03:35:46;;;;;;;6.43;5.63;;;;;;;;;;5012920;28;20281;-79
2023/08/05 03:38:16;;;;;;;6.93;5.47;;;;;;;;;;5024010;28;20194;-79
2023/08/05 03:40:42;;;;;;;7.60;5.60;;;;;;;;;;5025197;28;20174;-79
2023/08/05 03:43:09;;;;;;;7.60;5.37;;;;;;;;;;5036042;28;20182;-79
2023/08/05 03:45:35;;;;;;;7.60;5.23;;;;;;;;;;5035828;28;20188;-79
2023/08/05 03:48:02;;;;;;;8.37;5.30;;;;;;;;;;5028792;28;20189;-79
2023/08/05 03:50:28;;;;;;;8.30;5.87;;;;;;;;;;5019107;28;20186;-79
2023/08/05 03:52:55;;;;;;;6.67;5.40;;;;;;;;;;5037166;28;20195;-79
2023/08/05 03:55:21;;;;;;;6.20;5.10;;;;;;;;;;5015509;28;20228;-79
2023/08/05 03:57:48;;;;;;;8.20;5.27;;;;;;;;;;5012308;28;20231;-79
2023/08/05 04:00:20;;;;;;;7.23;5.83;;;;;;;;;;5028924;28;20172;-79
2023/08/05 04:02:47;;;;;;;7.67;5.47;;;;;;;;;;5044012;28;20177;-79
2023/08/05 04:05:13;;;;;;;6.30;5.63;;;;;;;;;;5019892;28;20190;-79
2023/08/05 04:07:40;;;;;;;5.97;5.37;;;;;;;;;;5027630;28;20193;-79
2023/08/05 04:10:06;;;;;;;6.83;5.60;;;;;;;;;;5028222;28;20181;-79
2023/08/05 04:12:35;;;;;;;5.67;5.10;;;;;;;;;;5033317;28;20547;-79
2023/08/05 04:15:03;;;;;;;6.10;5.20;;;;;;;;;;5016757;28;20549;-79
2023/08/05 04:17:30;;;;;;;7.23;5.30;;;;;;;;;;5032617;28;20301;-80
2023/08/05 04:19:57;;;;;;;6.43;5.53;;;;;;;;;;5013960;28;20210;-80
2023/08/05 04:22:25;;;;;;;5.97;4.90;;;;;;;;;;5050247;28;20191;-79
2023/08/05 04:24:51;;;;;;;5.67;5.07;;;;;;;;;;5030668;28;20186;-79
2023/08/05 04:27:18;;;;;;;6.30;5.10;;;;;;;;;;5049736;28;20201;-80
2023/08/05 04:29:45;;;;;;;5.90;5.30;;;;;;;;;;5014899;28;20754;-80
2023/08/05 04:32:11;;;;;;;8.77;5.57;;;;;;;;;;5052912;28;20185;-79
2023/08/05 04:34:37;;;;;;;7.07;5.90;;;;;;;;;;5031293;28;20615;-79
2023/08/05 04:37:20;;;;;;;7.13;5.13;;;;;;;;;;5048907;28;20245;-79
2023/08/05 04:39:47;;;;;;;6.03;5.40;;;;;;;;;;5048440;28;20283;-80
2023/08/05 04:42:13;;;;;;;7.30;5.07;;;;;;;;;;5044615;28;20201;-79
2023/08/05 04:44:42;;;;;;;6.93;5.33;;;;;;;;;;5042058;28;20240;-79
2023/08/05 04:47:12;;;;;;;5.80;5.20;;;;;;;;;;5045057;28;20676;-80
2023/08/05 04:49:39;;;;;;;6.60;5.13;;;;;;;;;;5030113;28;20257;-79
2023/08/05 04:52:06;;;;;;;6.50;5.10;;;;;;;;;;5032099;28;20665;-79
2023/08/05 04:54:36;;;;;;;7.17;4.80;;;;;;;;;;5041372;28;20224;-79
2023/08/05 04:57:02;;;;;;;5.87;5.30;;;;;;;;;;5025202;28;20629;-79
2023/08/05 04:59:28;;;;;;;7.07;4.97;;;;;;;;;;5048654;28;20213;-80
2023/08/05 05:01:54;;;;;;;5.17;4.67;;;;;;;;;;5049345;28;20231;-79
2023/08/05 05:04:20;;;;;;;5.50;5.00;;;;;;;;;;5043898;28;20181;-80
2023/08/05 05:06:46;;;;;;;6.53;5.47;;;;;;;;;;5022271;28;20216;-79
2023/08/05 05:09:13;;;;;;;5.17;4.67;;;;;;;;;;5026211;28;20174;-80
2023/08/05 05:11:40;;;;;;;7.37;4.97;;;;;;;;;;5027026;28;20183;-79
2023/08/05 05:14:06;;;;;;;6.53;4.87;;;;;;;;;;5024270;28;20225;-79
2023/08/05 05:16:32;;;;;;;8.63;5.30;;;;;;;;;;5029305;28;20494;-80
2023/08/05 05:18:58;;;;;;;8.00;5.27;;;;;;;;;;5027783;28;20542;-79
2023/08/05 05:21:25;;;;;;;5.77;5.27;;;;;;;;;;5031373;28;20607;-79
2023/08/05 05:23:51;;;;;;;5.93;5.10;;;;;;;;;;5047943;28;20197;-80
2023/08/05 05:26:17;;;;;;;9.30;5.63;;;;;;;;;;5050409;28;20300;-79
2023/08/05 05:28:43;;;;;;;7.03;5.33;;;;;;;;;;5047100;28;20182;-80
2023/08/05 05:31:09;;;;;;;7.10;5.33;;;;;;;;;;5051357;28;20335;-79
2023/08/05 05:33:36;;;;;;;7.00;5.50;;;;;;;;;;5026082;28;20712;-79
2023/08/05 05:36:02;;;;;;;7.40;5.43;;;;;;;;;;5046824;28;20206;-80
2023/08/05 05:38:28;;;;;;;5.93;4.90;;;;;;;;;;5034074;28;20768;-80
2023/08/05 05:40:55;;;;;;;8.23;5.53;;;;;;;;;;5050020;28;20289;-80
2023/08/05 05:43:21;;;;;;;7.70;6.60;;;;;;;;;;5028538;28;20212;-79
2023/08/05 05:45:48;;;;;;;6.70;6.00;;;;;;;;;;5038863;28;20280;-80
2023/08/05 05:48:14;;;;;;;7.60;5.50;;;;;;;;;;5046818;28;20216;-80
2023/08/05 05:50:43;;;;;;;8.43;5.77;;;;;;;;;;5050591;28;20197;-80
2023/08/05 05:53:13;;;;;;;6.87;5.67;;;;;;;;;;5053541;28;20265;-79
2023/08/05 05:55:42;;;;;;;7.67;6.30;;;;;;;;;;5054609;28;20213;-80
2023/08/05 05:58:09;;;;;;;9.47;6.37;;;;;;;;;;5054182;28;20248;-79
2023/08/05 06:00:37;;;;;;;9.40;6.77;;;;;;;;;;5051041;28;20268;-80
2023/08/05 06:03:03;;;;;;;10.63;7.43;;;;;;;;;;5049153;28;20188;-80
2023/08/05 06:05:30;;;;;;;10.73;6.30;;;;;;;;;;5032644;28;20178;-80
2023/08/05 06:07:56;;;;;;;8.77;6.60;;;;;;;;;;5016697;28;20189;-80
2023/08/05 06:10:23;;;;;;;9.80;7.00;;;;;;;;;;5033563;28;20209;-79
2023/08/05 06:12:49;;;;;;;10.50;6.63;;;;;;;;;;5030188;28;20178;-80
2023/08/05 06:15:15;;;;;;;7.27;6.37;;;;;;;;;;5028848;28;20696;-80
2023/08/05 06:17:41;;;;;;;9.30;6.73;;;;;;;;;;5029229;23;20248;-76
2023/08/05 06:20:08;;;;;;;8.03;6.30;;;;;;;;;;5028777;28;20182;-76
2023/08/05 06:22:34;;;;;;;8.70;6.87;;;;;;;;;;5028465;28;20206;-76
2023/08/05 06:25:00;;;;;;;8.53;6.20;;;;;;;;;;5011886;28;20244;-78
2023/08/05 06:27:27;;;;;;;7.67;6.30;;;;;;;;;;5002823;28;20210;-81
2023/08/05 06:29:53;;;;;;;6.63;6.03;;;;;;;;;;5017534;28;20660;-81
2023/08/05 06:32:19;;;;;;;7.53;6.50;;;;;;;;;;4982206;28;20190;-82
2023/08/05 06:34:45;;;;;;;11.70;7.13;;;;;;;;;;4976683;28;20664;-82
2023/08/05 06:37:11;;;;;;;7.90;6.97;;;;;;;;;;4978464;28;20207;-81
2023/08/05 06:39:37;;;;;;;9.10;7.10;;;;;;;;;;4982557;28;20215;-82
2023/08/05 06:42:04;;;;;;;9.97;7.10;;;;;;;;;;4990976;28;20183;-81
2023/08/05 06:44:37;;;;;;;10.27;8.20;;;;;;;;;;4965821;28;20193;-81
2023/08/05 06:47:04;;;;;;;8.77;6.80;;;;;;;;;;4996841;28;20203;-81
2023/08/05 06:49:30;;;;;;;8.97;7.10;;;;;;;;;;4996640;28;20271;-82
2023/08/05 06:51:56;;;;;;;9.87;7.17;;;;;;;;;;4995953;28;20198;-82
2023/08/05 06:54:22;;;;;;;7.10;6.40;;;;;;;;;;4980891;28;20195;-79
2023/08/05 06:56:50;;;;;;;9.67;7.13;;;;;;;;;;5013821;28;20256;-77
2023/08/05 06:59:16;;;;;;;9.07;7.37;;;;;;;;;;4985252;28;20211;-82
2023/08/05 07:01:42;;;;;;;9.27;8.10;;;;;;;;;;4980565;28;20189;-81
2023/08/05 07:04:08;;;;;;;8.30;6.90;;;;;;;;;;5001907;28;20239;-81
2023/08/05 07:06:35;;;;;;;9.33;7.30;;;;;;;;;;4973549;28;20264;-81
2023/08/05 07:09:03;;;;;;;8.40;7.53;;;;;;;;;;4973247;28;20655;-81
2023/08/05 07:11:30;;;;;;;8.53;7.63;;;;;;;;;;4970327;28;20215;-81
2023/08/05 07:13:56;;;;;;;9.20;7.10;;;;;;;;;;5003716;28;20191;-82
2023/08/05 07:16:22;;;;;;;9.43;6.43;;;;;;;;;;5001720;28;20233;-82
2023/08/05 07:18:48;;;;;;;8.83;6.47;;;;;;;;;;4990413;28;20673;-82
2023/08/05 07:21:17;;;;;;;9.37;7.07;;;;;;;;;;4975193;28;20214;-83
2023/08/05 07:23:43;;;;;;;11.23;7.27;;;;;;;;;;4979447;28;20266;-82
2023/08/05 07:26:09;;;;;;;9.47;7.33;;;;;;;;;;4999265;28;20282;-82
2023/08/05 07:28:35;;;;;;;7.20;6.50;;;;;;;;;;4989230;28;20183;-82
2023/08/05 07:31:07;;;;;;;7.33;6.63;;;;;;;;;;4987626;28;20677;-82
2023/08/05 07:33:33;;;;;;;7.60;6.80;;;;;;;;;;4991652;28;20194;-80
2023/08/05 07:36:13;;;;;;;10.30;7.17;;;;;;;;;;4978815;28;20217;-82
2023/08/05 07:38:40;;;;;;;6.80;6.17;;;;;;;;;;5011170;28;20268;-82
2023/08/05 07:41:07;;;;;;;8.17;6.20;;;;;;;;;;5011113;28;20650;-83
2023/08/05 07:43:38;;;;;;;8.10;5.90;;;;;;;;;;4995905;28;20650;-82
2023/08/05 07:46:05;;;;;;;8.67;5.50;;;;;;;;;;4993982;28;20188;-82
2023/08/05 07:48:35;;;;;;;6.43;5.20;;;;;;;;;;4991974;28;20188;-82
2023/08/05 07:51:06;;;;;;;6.27;5.07;;;;;;;;;;4978435;28;20202;-82
2023/08/05 07:53:36;;;;;;;5.83;5.00;;;;;;;;;;4989916;28;20222;-80
2023/08/05 07:56:12;;;;;;;8.13;5.70;;;;;;;;;;4996544;28;20573;-81
2023/08/05 07:58:40;;;;;;;6.93;4.80;;;;;;;;;;4995262;28;20206;-80
2023/08/05 08:01:07;;;;;;;5.00;4.37;;;;;;;;;;4988762;28;20676;-81
2023/08/05 08:03:33;;;;;;;5.20;4.27;;;;;;;;;;5009954;28;20685;-79
2023/08/05 08:05:59;;;;;;;4.97;4.00;;;;;;;;;;5006990;28;20230;-79
2023/08/05 08:08:26;;;;;;;4.60;4.00;;;;;;;;;;4973908;28;20533;-80
2023/08/05 08:10:52;;;;;;;4.87;4.00;;;;;;;;;;4966522;28;20265;-76
2023/08/05 08:13:18;;;;;;;4.93;4.30;;;;;;;;;;5003707;28;20187;-80
2023/08/05 08:15:44;;;;;;;3.90;3.60;;;;;;;;;;4989166;28;20194;-79
2023/08/05 08:18:10;;;;;;;5.57;3.30;;;;;;;;;;5005086;28;20227;-79
2023/08/05 08:20:37;;;;;;;6.30;3.80;;;;;;;;;;4995229;28;20183;-79
2023/08/05 08:23:03;;;;;;;7.63;3.90;;;;;;;;;;5010503;28;20183;-78
2023/08/05 08:25:29;;;;;;;4.20;3.80;;;;;;;;;;4992099;28;20183;-78
2023/08/05 08:27:56;;;;;;;3.73;3.37;;;;;;;;;;5005583;28;20611;-77
2023/08/05 08:30:22;;;;;;;4.73;3.70;;;;;;;;;;4988940;28;20187;-78
2023/08/05 08:32:48;;;;;;;4.00;3.60;;;;;;;;;;4992128;28;20306;-79
2023/08/05 08:35:14;;;;;;;4.60;3.53;;;;;;;;;;5006364;28;20760;-79
2023/08/05 08:37:40;;;;;;;3.50;2.83;;;;;;;;;;5009709;28;20191;-80
2023/08/05 08:40:07;;;;;;;3.27;2.90;;;;;;;;;;5000137;28;20183;-79
2023/08/05 08:42:34;;;;;;;3.43;3.03;;;;;;;;;;4980815;28;20187;-78
2023/08/05 08:45:01;;;;;;;3.10;2.50;;;;;;;;;;5009555;28;20245;-79
2023/08/05 08:47:28;;;;;;;3.17;2.77;;;;;;;;;;5009398;28;20266;-79
2023/08/05 08:49:54;;;;;;;3.13;2.80;;;;;;;;;;4993179;28;20566;-78
2023/08/05 08:52:20;;;;;;;4.20;3.00;;;;;;;;;;5005408;28;20202;-78
2023/08/05 08:54:48;;;;;;;2.57;2.13;;;;;;;;;;5012025;28;20191;-79
2023/08/05 08:57:15;;;;;;;3.97;2.40;;;;;;;;;;4998396;28;20580;-78
2023/08/05 08:59:41;;;;;;;3.20;2.13;;;;;;;;;;4994434;28;20211;-79
2023/08/05 09:02:20;;;;;;;3.77;2.00;;;;;;;;;;4989074;28;20274;-77
2023/08/05 09:04:47;;;;;;;3.57;2.20;;;;;;;;;;5008051;28;20179;-77
2023/08/05 09:07:13;;;;;;;4.80;2.40;;;;;;;;;;4976722;28;20678;-76
2023/08/05 09:09:39;;;;;;;3.27;2.20;;;;;;;;;;5012628;28;20195;-81
2023/08/05 09:12:06;;;;;;;2.70;2.00;;;;;;;;;;4994799;28;20187;-77
2023/08/05 09:14:32;;;;;;;3.30;2.03;;;;;;;;;;5003161;28;20194;-78
2023/08/05 09:16:59;;;;;;;2.80;2.30;;;;;;;;;;5011954;28;20759;-78
2023/08/05 09:19:26;;;;;;;5.20;2.20;;;;;;;;;;5012290;28;20238;-78
2023/08/05 09:21:52;;;;;;;2.80;2.37;;;;;;;;;;5013520;28;20179;-79
2023/08/05 09:24:25;;;;;;;3.40;2.70;;;;;;;;;;4996044;28;20631;-79
2023/08/05 09:26:58;;;;;;;3.30;2.53;;;;;;;;;;4991294;28;20231;-79
2023/08/05 09:29:26;;;;;;;2.93;2.20;;;;;;;;;;5008480;28;20195;-79
2023/08/05 09:31:58;;;;;;;2.90;2.40;;;;;;;;;;5007037;28;20215;-78
2023/08/05 09:34:31;;;;;;;3.23;2.30;;;;;;;;;;5009869;28;20197;-79
2023/08/05 09:36:58;;;;;;;2.93;2.10;;;;;;;;;;4995102;28;20246;-79
2023/08/05 09:39:24;;;;;;;2.67;2.20;;;;;;;;;;5008861;28;20207;-79
2023/08/05 09:41:54;;;;;;;2.37;1.90;;;;;;;;;;5007901;28;20172;-79
2023/08/05 09:44:20;;;;;;;2.40;2.00;;;;;;;;;;4993180;28;20187;-79
2023/08/05 09:46:47;;;;;;;3.10;2.10;;;;;;;;;;4998525;28;20210;-79
2023/08/05 09:49:14;;;;;;;3.20;1.70;;;;;;;;;;5013998;28;20238;-79
2023/08/05 09:51:49;;;;;;;1.97;1.80;;;;;;;;;;5006968;28;20195;-79
2023/08/05 09:54:18;;;;;;;1.90;1.80;;;;;;;;;;4991404;28;20199;-79
2023/08/05 09:56:45;;;;;;;2.90;2.13;;;;;;;;;;4991009;28;20230;-78
2023/08/05 09:59:14;;;;;;;3.30;2.27;;;;;;;;;;5006448;28;20219;-78
2023/08/05 10:01:40;;;;;;;2.40;2.20;;;;;;;;;;5009342;28;20233;-82
2023/08/05 10:04:08;;;;;;;2.50;2.13;;;;;;;;;;5010235;28;20179;-81
2023/08/05 10:06:38;;;;;;;3.10;2.80;;;;;;;;;;4978239;28;20199;-81
2023/08/05 10:09:05;;;;;;;3.63;3.00;;;;;;;;;;4993596;28;20216;-75
2023/08/05 10:11:31;;;;;;;2.87;2.47;;;;;;;;;;5004749;28;20651;-75
2023/08/05 10:13:58;;;;;;;5.77;3.13;;;;;;;;;;5009361;28;20286;-75
2023/08/05 10:16:24;;;;;;;4.87;3.50;;;;;;;;;;5008195;28;20682;-75
2023/08/05 10:18:51;;;;;;;5.40;4.07;;;;;;;;;;4992753;28;20207;-77
2023/08/05 10:21:37;;;;;;;9.83;4.40;;;;;;;;;;5006509;28;20827;-79
2023/08/05 10:24:03;;;;;;;5.60;3.97;;;;;;;;;;5009251;28;20191;-77
2023/08/05 10:26:43;;;;;;;4.23;3.80;;;;;;;;;;4955680;28;20275;-80
2023/08/05 10:29:25;;;;;;;4.17;3.70;;;;;;;;;;4995952;28;20600;-77
2023/08/05 10:31:52;;;;;;;4.67;3.63;;;;;;;;;;5008808;28;20543;-76
2023/08/05 10:34:18;;;;;;;6.37;4.40;;;;;;;;;;5008637;28;20176;-82
2023/08/05 10:36:45;;;;;;;5.67;3.67;;;;;;;;;;4980877;28;20195;-79
2023/08/05 10:39:30;;;;;;;5.30;3.80;;;;;;;;;;4994403;28;20745;-77
2023/08/05 10:41:56;;;;;;;5.40;3.60;;;;;;;;;;5009052;28;20258;-80
2023/08/05 10:44:34;;;;;;;4.80;4.27;;;;;;;;;;5013151;28;20180;-80
2023/08/05 10:47:03;;;;;;;5.50;4.80;;;;;;;;;;4981982;28;20207;-77
2023/08/05 10:49:29;;;;;;;5.40;4.90;;;;;;;;;;5008142;28;20191;-77
2023/08/05 10:51:55;;;;;;;5.30;4.80;;;;;;;;;;5010294;28;20188;-77
2023/08/05 10:54:21;;;;;;;4.67;4.27;;;;;;;;;;5004536;28;20263;-77
2023/08/05 10:56:47;;;;;;;6.00;4.70;;;;;;;;;;5009779;28;20204;-77
2023/08/05 10:59:14;;;;;;;4.20;3.80;;;;;;;;;;5008968;28;20223;-77
2023/08/05 11:01:54;;;;;;;4.80;4.13;;;;;;;;;;5001869;28;20184;-77
2023/08/05 11:04:26;;;;;;;6.30;4.03;;;;;;;;;;5001517;28;20262;-77
2023/08/05 11:06:52;;;;;;;5.03;3.93;;;;;;;;;;5006749;28;20270;-77
2023/08/05 11:09:18;;;;;;;4.10;3.60;;;;;;;;;;5004168;28;20210;-77
2023/08/05 11:11:48;;;;;;;4.13;3.43;;;;;;;;;;5006310;28;20195;-77
2023/08/05 11:14:15;;;;;;;4.33;3.20;;;;;;;;;;5007487;28;20192;-77
2023/08/05 11:16:47;;;;;;;4.73;3.50;;;;;;;;;;5003076;28;20570;-77
2023/08/05 11:19:14;;;;;;;3.43;3.07;;;;;;;;;;5006415;28;20216;-77
2023/08/05 11:21:44;;;;;;;3.30;2.50;;;;;;;;;;5008189;28;20178;-77
2023/08/05 11:24:19;;;;;;;3.10;2.50;;;;;;;;;;5006231;28;20194;-77
2023/08/05 11:26:47;;;;;;;3.40;3.00;;;;;;;;;;5006766;28;20668;-77
2023/08/05 11:29:16;;;;;;;5.80;2.70;;;;;;;;;;5010096;28;20202;-76
2023/08/05 11:31:52;;;;;;;3.20;2.70;;;;;;;;;;5006946;28;20561;-83
2023/08/05 11:34:22;;;;;;;3.90;2.67;;;;;;;;;;5010169;28;20194;-79
2023/08/05 11:36:58;;;;;;;3.20;2.80;;;;;;;;;;5003230;28;20207;-78
2023/08/05 11:39:24;;;;;;;3.63;2.60;;;;;;;;;;4987040;28;20317;-77
2023/08/05 11:41:51;;;;;;;3.77;2.73;;;;;;;;;;5005656;28;20180;-74
2023/08/05 11:44:18;;;;;;;4.57;2.63;;;;;;;;;;5006795;28;20324;-75
2023/08/05 11:46:44;;;;;;;3.33;2.90;;;;;;;;;;5008251;28;20299;-75
2023/08/05 11:49:10;;;;;;;2.70;2.50;;;;;;;;;;5008056;28;20557;-75
2023/08/05 11:51:48;;;;;;;2.83;2.40;;;;;;;;;;5007412;28;20653;-74
2023/08/05 11:54:32;;;;;;;2.17;1.93;;;;;;;;;;5008811;28;20687;-74
2023/08/05 11:56:58;;;;;;;2.00;1.80;;;;;;;;;;5000725;28;20767;-74
2023/08/05 11:59:44;;;;;;;2.53;1.90;;;;;;;;;;5000825;28;20207;-74
2023/08/05 12:02:10;;;;;;;3.03;2.30;;;;;;;;;;5002110;28;20199;-74
2023/08/05 12:04:42;;;;;;;2.80;2.20;;;;;;;;;;5003340;28;20211;-74
2023/08/05 12:07:15;;;;;;;3.53;2.30;;;;;;;;;;5002862;28;20219;-74
2023/08/05 12:09:42;;;;;;;3.10;2.10;;;;;;;;;;5002668;28;20206;-74
2023/08/05 12:12:14;;;;;;;2.80;2.30;;;;;;;;;;5008540;28;20684;-75
2023/08/05 12:14:41;;;;;;;2.20;1.90;;;;;;;;;;5006567;28;20260;-74
2023/08/05 12:17:07;;;;;;;3.20;2.40;;;;;;;;;;5043759;22;20233;-81
2023/08/05 12:19:33;;;;;;;4.93;2.13;;;;;;;;;;5041504;28;20364;-78
2023/08/05 12:21:59;;;;;;;2.50;2.20;;;;;;;;;;5046418;28;20178;-78
2023/08/05 12:24:26;;;;;;;2.07;1.80;;;;;;;;;;5032409;28;20205;-80
2023/08/05 12:26:52;;;;;;;3.27;1.93;;;;;;;;;;5043406;28;20300;-78
2023/08/05 12:29:18;;;;;;;2.67;2.00;;;;;;;;;;5047282;28;20185;-78
2023/08/05 12:31:44;;;;;;;2.40;2.20;;;;;;;;;;5051055;28;20203;-79
2023/08/05 12:34:11;;;;;;;4.63;2.40;;;;;;;;;;5034259;28;20239;-78
2023/08/05 12:36:37;;;;;;;3.23;2.40;;;;;;;;;;5049639;28;20225;-79
2023/08/05 12:39:03;;;;;;;2.40;2.20;;;;;;;;;;5030744;28;20205;-79
2023/08/05 12:41:29;;;;;;;3.87;2.33;;;;;;;;;;5047931;28;20215;-78
2023/08/05 12:43:55;;;;;;;4.27;2.30;;;;;;;;;;5020634;28;20183;-78
2023/08/05 12:46:22;;;;;;;2.73;2.40;;;;;;;;;;5053109;28;20185;-78
2023/08/05 12:48:48;;;;;;;2.97;2.23;;;;;;;;;;5049837;28;20267;-74
2023/08/05 12:51:14;;;;;;;3.13;2.50;;;;;;;;;;5032903;28;20182;-79
2023/08/05 12:53:41;;;;;;;2.60;2.00;;;;;;;;;;5040729;28;20829;-77
2023/08/05 12:56:07;;;;;;;3.33;2.23;;;;;;;;;;5033218;28;20214;-77
2023/08/05 12:58:34;;;;;;;2.60;2.40;;;;;;;;;;5025434;28;20213;-83
2023/08/05 13:01:00;;;;;;;5.30;2.30;;;;;;;;;;5027568;28;20644;-82
2023/08/05 13:03:26;;;;;;;2.43;2.23;;;;;;;;;;5018134;28;20180;-84
2023/08/05 13:05:52;;;;;;;2.43;2.20;;;;;;;;;;5019855;28;20191;-82
2023/08/05 13:08:19;;;;;;;2.57;2.33;;;;;;;;;;5026494;28;20207;-83
2023/08/05 13:10:45;;;;;;;2.50;2.30;;;;;;;;;;5014470;28;20198;-83
2023/08/05 13:13:11;;;;;;;3.67;2.70;;;;;;;;;;5019241;28;20195;-82
2023/08/05 13:15:37;;;;;;;5.47;3.30;;;;;;;;;;5049995;28;20182;-83
2023/08/05 13:18:03;;;;;;;5.43;3.73;;;;;;;;;;5050019;28;20218;-85
2023/08/05 13:20:30;;;;;;;3.40;3.10;;;;;;;;;;5015877;28;20191;-85
2023/08/05 13:22:56;;;;;;;6.03;4.20;;;;;;;;;;4998509;28;20270;-85
2023/08/05 13:25:22;;;;;;;8.73;4.10;;;;;;;;;;5018430;28;20622;-84
2023/08/05 13:27:49;;;;;;;4.50;3.57;;;;;;;;;;5000725;28;20211;-84
2023/08/05 13:30:15;;;;;;;4.17;3.30;;;;;;;;;;5051149;28;20213;-83
2023/08/05 13:32:42;;;;;;;3.80;3.40;;;;;;;;;;5049320;28;20194;-84
2023/08/05 13:35:08;;;;;;;3.50;3.20;;;;;;;;;;5029328;28;20209;-83
2023/08/05 13:37:34;;;;;;;3.70;3.30;;;;;;;;;;5000720;28;20213;-83
2023/08/05 13:40:00;;;;;;;4.13;3.70;;;;;;;;;;5051641;28;20207;-83
2023/08/05 13:42:27;;;;;;;5.33;3.63;;;;;;;;;;5028741;28;20208;-83
2023/08/05 13:44:53;;;;;;;5.70;3.33;;;;;;;;;;5022697;28;20680;-84
2023/08/05 13:47:19;;;;;;;4.47;3.10;;;;;;;;;;5048871;28;20207;-82
2023/08/05 13:49:45;;;;;;;3.77;3.10;;;;;;;;;;5033329;28;20188;-83
2023/08/05 13:52:11;;;;;;;4.37;2.80;;;;;;;;;;5035020;28;20695;-84
2023/08/05 13:54:37;;;;;;;4.00;2.87;;;;;;;;;;5047200;28;20185;-83
2023/08/05 13:57:04;;;;;;;3.10;2.50;;;;;;;;;;5048390;28;20241;-84
2023/08/05 13:59:30;;;;;;;4.03;2.53;;;;;;;;;;5049172;28;20206;-84
2023/08/05 14:01:56;;;;;;;2.23;2.00;;;;;;;;;;5046878;28;20724;-84
2023/08/05 14:04:22;;;;;;;2.27;1.90;;;;;;;;;;5052081;28;20185;-83
2023/08/05 14:06:48;;;;;;;2.57;2.00;;;;;;;;;;5031685;28;20665;-85
2023/08/05 14:09:14;;;;;;;2.10;1.90;;;;;;;;;;5051394;28;20302;-84
2023/08/05 14:11:40;;;;;;;2.10;1.80;;;;;;;;;;5051653;28;20181;-84
2023/08/05 14:14:06;;;;;;;2.00;1.80;;;;;;;;;;5052181;28;20672;-84
2023/08/05 14:16:35;;;;;;;2.03;1.83;;;;;;;;;;5050262;28;20176;-85
2023/08/05 14:19:02;;;;;;;2.13;1.90;;;;;;;;;;5050324;28;20229;-84
2023/08/05 14:21:28;;;;;;;1.67;1.57;;;;;;;;;;5031983;28;21652;-84
2023/08/05 14:23:54;;;;;;;1.93;1.73;;;;;;;;;;5045104;28;20179;-84
2023/08/05 14:26:20;;;;;;;1.93;1.70;;;;;;;;;;5031463;28;20201;-84
2023/08/05 14:28:46;;;;;;;2.00;1.80;;;;;;;;;;5027978;28;20272;-85
2023/08/05 14:31:13;;;;;;;2.90;2.40;;;;;;;;;;5015068;28;20615;-85
2023/08/05 14:33:39;;;;;;;2.10;1.87;;;;;;;;;;5051034;28;20182;-84
2023/08/05 14:36:12;;;;;;;2.17;1.63;;;;;;;;;;5045905;28;20187;-84
2023/08/05 14:38:38;;;;;;;1.90;1.63;;;;;;;;;;5049789;28;20580;-84
2023/08/05 14:41:04;;;;;;;1.70;1.50;;;;;;;;;;5036342;28;20177;-84
2023/08/05 14:43:30;;;;;;;2.33;1.50;;;;;;;;;;5043205;28;20242;-85